sensor_id;sensor_type;location;lat;lon;timestamp;temperature;humidity
752;DHT22;360;48.764;9.164;2022-09-09T00:02:21;14.90;99.90
752;DHT22;360;48.764;9.164;2022-09-09T00:04:58;14.90;99.90
752;DHT22;360;48.764;9.164;2022-09-09T00:07:36;14.80;99.90
752;DHT22;360;48.764;9.164;2022-09-09T00:10:13;14.70;99.90
752;DHT22;360;48.764;9.164;2022-09-09T00:12:48;14.80;99.90
752;DHT22;360;48.764;9.164;2022-09-09T00:15:19;14.70;99.90
752;DHT22;360;48.764;9.164;2022-09-09T00:17:53;14.70;99.90
752;DHT22;360;48.764;9.164;2022-09-09T00:20:28;14.70;99.90
752;DHT22;360;48.764;9.164;2022-09-09T00:23:00;14.80;90.90
752;DHT22;360;48.764;9.164;2022-09-09T00:25:33;14.90;53.50
752;DHT22;360;48.764;9.164;2022-09-09T00:28:04;14.90;1.00
752;DHT22;360;48.764;9.164;2022-09-09T00:30:40;14.90;1.00
752;DHT22;360;48.764;9.164;2022-09-09T00:33:12;15.10;1.00
752;DHT22;360;48.764;9.164;2022-09-09T00:35:43;15.00;1.00
752;DHT22;360;48.764;9.164;2022-09-09T00:38:13;15.00;1.00
752;DHT22;360;48.764;9.164;2022-09-09T00:40:47;15.00;1.00
752;DHT22;360;48.764;9.164;2022-09-09T00:43:26;15.00;1.00
752;DHT22;360;48.764;9.164;2022-09-09T00:46:21;15.10;1.00
752;DHT22;360;48.764;9.164;2022-09-09T00:48:58;15.20;1.00
752;DHT22;360;48.764;9.164;2022-09-09T00:51:35;15.20;99.90
752;DHT22;360;48.764;9.164;2022-09-09T00:54:18;15.10;1.00
752;DHT22;360;48.764;9.164;2022-09-09T00:56:57;15.10;1.00
752;DHT22;360;48.764;9.164;2022-09-09T00:59:38;15.00;1.00
752;DHT22;360;48.764;9.164;2022-09-09T01:02:17;15.10;1.00
752;DHT22;360;48.764;9.164;2022-09-09T01:04:49;15.20;99.90
752;DHT22;360;48.764;9.164;2022-09-09T01:07:17;15.30;1.00
752;DHT22;360;48.764;9.164;2022-09-09T01:10:03;15.30;99.90
752;DHT22;360;48.764;9.164;2022-09-09T01:12:38;15.30;99.90
752;DHT22;360;48.764;9.164;2022-09-09T01:15:12;15.30;1.00
752;DHT22;360;48.764;9.164;2022-09-09T01:17:52;15.30;7.60
752;DHT22;360;48.764;9.164;2022-09-09T01:20:25;15.30;1.00
752;DHT22;360;48.764;9.164;2022-09-09T01:23:04;15.30;1.00
752;DHT22;360;48.764;9.164;2022-09-09T01:26:09;15.30;99.90
752;DHT22;360;48.764;9.164;2022-09-09T01:28:40;15.40;99.90
752;DHT22;360;48.764;9.164;2022-09-09T01:31:11;15.50;99.90
752;DHT22;360;48.764;9.164;2022-09-09T01:33:40;15.40;99.90
752;DHT22;360;48.764;9.164;2022-09-09T01:36:11;15.50;99.90
752;DHT22;360;48.764;9.164;2022-09-09T01:38:40;15.50;1.00
752;DHT22;360;48.764;9.164;2022-09-09T01:41:08;15.50;1.00
752;DHT22;360;48.764;9.164;2022-09-09T01:43:35;15.50;1.00
752;DHT22;360;48.764;9.164;2022-09-09T01:46:02;15.60;1.00
752;DHT22;360;48.764;9.164;2022-09-09T01:48:30;15.50;99.90
752;DHT22;360;48.764;9.164;2022-09-09T01:50:56;15.50;1.00
752;DHT22;360;48.764;9.164;2022-09-09T01:56:59;15.50;99.90
752;DHT22;360;48.764;9.164;2022-09-09T01:59:41;15.50;1.00
752;DHT22;360;48.764;9.164;2022-09-09T02:02:15;15.50;85.10
752;DHT22;360;48.764;9.164;2022-09-09T02:04:45;15.50;1.00
752;DHT22;360;48.764;9.164;2022-09-09T02:07:29;15.30;72.30
752;DHT22;360;48.764;9.164;2022-09-09T02:10:01;15.30;99.90
752;DHT22;360;48.764;9.164;2022-09-09T02:12:30;15.10;99.90
752;DHT22;360;48.764;9.164;2022-09-09T02:15:03;15.10;1.00
752;DHT22;360;48.764;9.164;2022-09-09T02:17:35;14.90;1.00
752;DHT22;360;48.764;9.164;2022-09-09T02:20:06;14.80;99.90
752;DHT22;360;48.764;9.164;2022-09-09T02:22:35;14.70;99.90
752;DHT22;360;48.764;9.164;2022-09-09T02:25:03;14.70;99.90
752;DHT22;360;48.764;9.164;2022-09-09T02:27:33;14.60;99.90
752;DHT22;360;48.764;9.164;2022-09-09T02:30:01;14.60;99.90
752;DHT22;360;48.764;9.164;2022-09-09T02:32:29;14.50;99.90
752;DHT22;360;48.764;9.164;2022-09-09T02:35:00;14.50;99.90
752;DHT22;360;48.764;9.164;2022-09-09T02:37:32;14.50;99.90
752;DHT22;360;48.764;9.164;2022-09-09T02:40:02;14.40;99.90
752;DHT22;360;48.764;9.164;2022-09-09T02:42:29;14.40;99.90
752;DHT22;360;48.764;9.164;2022-09-09T02:44:58;14.30;99.90
752;DHT22;360;48.764;9.164;2022-09-09T02:47:29;14.40;99.90
752;DHT22;360;48.764;9.164;2022-09-09T02:50:09;14.40;99.90
752;DHT22;360;48.764;9.164;2022-09-09T02:52:46;14.40;99.90
752;DHT22;360;48.764;9.164;2022-09-09T02:55:18;14.30;99.90
752;DHT22;360;48.764;9.164;2022-09-09T02:57:48;14.30;99.90
752;DHT22;360;48.764;9.164;2022-09-09T03:00:22;14.30;99.90
752;DHT22;360;48.764;9.164;2022-09-09T03:02:50;14.40;99.90
752;DHT22;360;48.764;9.164;2022-09-09T03:05:17;14.30;99.90
752;DHT22;360;48.764;9.164;2022-09-09T03:07:44;14.20;99.90
752;DHT22;360;48.764;9.164;2022-09-09T03:10:11;14.20;99.90
752;DHT22;360;48.764;9.164;2022-09-09T03:12:38;14.20;99.90
752;DHT22;360;48.764;9.164;2022-09-09T03:15:07;14.20;99.90
752;DHT22;360;48.764;9.164;2022-09-09T03:17:35;14.20;99.90
752;DHT22;360;48.764;9.164;2022-09-09T03:20:02;14.20;99.90
752;DHT22;360;48.764;9.164;2022-09-09T03:22:29;14.10;99.90
752;DHT22;360;48.764;9.164;2022-09-09T03:24:56;14.10;99.90
752;DHT22;360;48.764;9.164;2022-09-09T03:27:22;14.00;99.90
752;DHT22;360;48.764;9.164;2022-09-09T03:29:49;14.10;99.90
752;DHT22;360;48.764;9.164;2022-09-09T03:32:17;14.10;99.90
752;DHT22;360;48.764;9.164;2022-09-09T03:34:45;14.10;99.90
752;DHT22;360;48.764;9.164;2022-09-09T03:37:13;14.10;99.90
752;DHT22;360;48.764;9.164;2022-09-09T03:39:39;14.20;99.90
752;DHT22;360;48.764;9.164;2022-09-09T03:42:06;14.10;99.90
752;DHT22;360;48.764;9.164;2022-09-09T03:44:33;14.10;99.90
752;DHT22;360;48.764;9.164;2022-09-09T03:47:00;14.10;99.90
752;DHT22;360;48.764;9.164;2022-09-09T03:49:27;14.10;99.90
752;DHT22;360;48.764;9.164;2022-09-09T03:51:56;14.10;99.90
752;DHT22;360;48.764;9.164;2022-09-09T03:54:24;14.10;99.90
752;DHT22;360;48.764;9.164;2022-09-09T03:56:51;14.20;99.90
752;DHT22;360;48.764;9.164;2022-09-09T03:59:18;14.20;99.90
752;DHT22;360;48.764;9.164;2022-09-09T04:01:46;14.20;99.90
752;DHT22;360;48.764;9.164;2022-09-09T04:04:13;14.20;99.90
752;DHT22;360;48.764;9.164;2022-09-09T04:06:39;14.20;99.90
752;DHT22;360;48.764;9.164;2022-09-09T04:09:08;14.30;99.90
752;DHT22;360;48.764;9.164;2022-09-09T04:11:34;14.40;99.90
752;DHT22;360;48.764;9.164;2022-09-09T04:14:02;14.50;99.90
752;DHT22;360;48.764;9.164;2022-09-09T04:16:29;14.40;99.90
752;DHT22;360;48.764;9.164;2022-09-09T04:18:56;14.40;99.90
752;DHT22;360;48.764;9.164;2022-09-09T04:21:23;14.60;99.90
752;DHT22;360;48.764;9.164;2022-09-09T04:23:50;14.60;99.90
752;DHT22;360;48.764;9.164;2022-09-09T04:26:19;14.90;1.00
752;DHT22;360;48.764;9.164;2022-09-09T04:28:46;14.90;99.90
752;DHT22;360;48.764;9.164;2022-09-09T04:31:16;15.00;99.90
752;DHT22;360;48.764;9.164;2022-09-09T04:33:44;15.00;99.90
752;DHT22;360;48.764;9.164;2022-09-09T04:36:12;15.00;99.90
752;DHT22;360;48.764;9.164;2022-09-09T04:38:38;15.00;99.90
752;DHT22;360;48.764;9.164;2022-09-09T04:41:05;15.10;29.90
752;DHT22;360;48.764;9.164;2022-09-09T04:43:34;15.10;29.80
752;DHT22;360;48.764;9.164;2022-09-09T04:46:00;15.10;99.90
752;DHT22;360;48.764;9.164;2022-09-09T04:48:27;15.20;99.90
752;DHT22;360;48.764;9.164;2022-09-09T04:50:55;15.20;1.00
752;DHT22;360;48.764;9.164;2022-09-09T04:53:23;15.10;99.90
752;DHT22;360;48.764;9.164;2022-09-09T04:55:51;15.10;1.00
752;DHT22;360;48.764;9.164;2022-09-09T04:58:18;15.10;1.00
752;DHT22;360;48.764;9.164;2022-09-09T05:00:48;15.10;1.00
752;DHT22;360;48.764;9.164;2022-09-09T05:03:17;15.10;1.00
752;DHT22;360;48.764;9.164;2022-09-09T05:05:44;15.10;28.70
752;DHT22;360;48.764;9.164;2022-09-09T05:08:11;15.10;99.90
752;DHT22;360;48.764;9.164;2022-09-09T05:10:38;15.00;99.90
752;DHT22;360;48.764;9.164;2022-09-09T05:13:07;15.00;1.00
752;DHT22;360;48.764;9.164;2022-09-09T05:15:34;15.00;1.00
752;DHT22;360;48.764;9.164;2022-09-09T05:18:03;14.90;1.00
752;DHT22;360;48.764;9.164;2022-09-09T05:20:29;14.90;1.00
752;DHT22;360;48.764;9.164;2022-09-09T05:22:57;14.90;1.00
752;DHT22;360;48.764;9.164;2022-09-09T05:25:24;14.90;1.00
752;DHT22;360;48.764;9.164;2022-09-09T05:27:51;14.90;1.00
752;DHT22;360;48.764;9.164;2022-09-09T05:30:19;15.00;1.00
752;DHT22;360;48.764;9.164;2022-09-09T05:32:46;15.00;1.00
752;DHT22;360;48.764;9.164;2022-09-09T05:35:15;15.10;1.00
752;DHT22;360;48.764;9.164;2022-09-09T05:37:44;15.10;1.00
752;DHT22;360;48.764;9.164;2022-09-09T05:40:12;15.20;1.00
752;DHT22;360;48.764;9.164;2022-09-09T05:42:38;15.20;99.90
752;DHT22;360;48.764;9.164;2022-09-09T05:45:06;15.30;99.90
752;DHT22;360;48.764;9.164;2022-09-09T05:47:34;15.40;77.40
752;DHT22;360;48.764;9.164;2022-09-09T05:50:01;15.50;1.00
752;DHT22;360;48.764;9.164;2022-09-09T05:52:29;15.60;1.00
752;DHT22;360;48.764;9.164;2022-09-09T05:54:56;15.70;1.00
752;DHT22;360;48.764;9.164;2022-09-09T05:57:24;16.00;99.90
752;DHT22;360;48.764;9.164;2022-09-09T05:59:51;16.20;1.00
752;DHT22;360;48.764;9.164;2022-09-09T06:02:19;16.10;1.00
752;DHT22;360;48.764;9.164;2022-09-09T06:04:45;16.00;1.00
752;DHT22;360;48.764;9.164;2022-09-09T06:07:12;16.10;1.00
752;DHT22;360;48.764;9.164;2022-09-09T06:09:41;16.10;99.90
752;DHT22;360;48.764;9.164;2022-09-09T06:12:08;16.00;1.00
752;DHT22;360;48.764;9.164;2022-09-09T06:14:35;16.20;41.10
752;DHT22;360;48.764;9.164;2022-09-09T06:17:02;16.30;99.90
752;DHT22;360;48.764;9.164;2022-09-09T06:19:29;16.50;1.00
752;DHT22;360;48.764;9.164;2022-09-09T06:21:56;16.70;99.90
752;DHT22;360;48.764;9.164;2022-09-09T06:24:23;16.80;1.00
752;DHT22;360;48.764;9.164;2022-09-09T06:26:51;16.90;99.90
752;DHT22;360;48.764;9.164;2022-09-09T06:29:17;16.90;99.90
752;DHT22;360;48.764;9.164;2022-09-09T06:31:44;17.00;1.00
752;DHT22;360;48.764;9.164;2022-09-09T06:34:11;17.10;99.90
752;DHT22;360;48.764;9.164;2022-09-09T06:36:38;17.00;99.90
752;DHT22;360;48.764;9.164;2022-09-09T06:39:06;17.00;99.90
752;DHT22;360;48.764;9.164;2022-09-09T06:41:34;17.10;18.90
752;DHT22;360;48.764;9.164;2022-09-09T06:44:02;17.10;1.00
752;DHT22;360;48.764;9.164;2022-09-09T06:46:31;17.30;1.00
752;DHT22;360;48.764;9.164;2022-09-09T06:48:59;17.40;1.00
752;DHT22;360;48.764;9.164;2022-09-09T06:51:27;17.40;1.00
752;DHT22;360;48.764;9.164;2022-09-09T06:53:56;17.50;1.00
752;DHT22;360;48.764;9.164;2022-09-09T06:56:25;17.60;1.00
752;DHT22;360;48.764;9.164;2022-09-09T06:58:54;17.70;99.90
752;DHT22;360;48.764;9.164;2022-09-09T07:01:24;17.70;99.90
752;DHT22;360;48.764;9.164;2022-09-09T07:03:53;17.70;99.90
752;DHT22;360;48.764;9.164;2022-09-09T07:06:22;17.80;99.90
752;DHT22;360;48.764;9.164;2022-09-09T07:08:50;17.80;99.90
752;DHT22;360;48.764;9.164;2022-09-09T07:11:19;17.80;99.90
752;DHT22;360;48.764;9.164;2022-09-09T07:13:46;17.80;99.90
752;DHT22;360;48.764;9.164;2022-09-09T07:16:14;17.90;99.90
752;DHT22;360;48.764;9.164;2022-09-09T07:18:43;17.80;99.90
752;DHT22;360;48.764;9.164;2022-09-09T07:21:10;17.90;99.90
752;DHT22;360;48.764;9.164;2022-09-09T07:23:38;18.00;99.90
752;DHT22;360;48.764;9.164;2022-09-09T07:26:08;18.10;99.90
752;DHT22;360;48.764;9.164;2022-09-09T07:28:36;18.30;99.90
752;DHT22;360;48.764;9.164;2022-09-09T07:31:04;18.30;94.80
752;DHT22;360;48.764;9.164;2022-09-09T07:33:32;18.20;99.90
752;DHT22;360;48.764;9.164;2022-09-09T07:36:05;18.30;80.70
752;DHT22;360;48.764;9.164;2022-09-09T07:38:37;18.50;13.20
752;DHT22;360;48.764;9.164;2022-09-09T07:41:05;18.50;1.00
752;DHT22;360;48.764;9.164;2022-09-09T07:43:34;18.60;1.00
752;DHT22;360;48.764;9.164;2022-09-09T07:46:01;18.60;1.00
752;DHT22;360;48.764;9.164;2022-09-09T07:48:28;18.60;1.00
752;DHT22;360;48.764;9.164;2022-09-09T07:51:07;18.70;1.00
752;DHT22;360;48.764;9.164;2022-09-09T07:53:36;18.70;1.00
752;DHT22;360;48.764;9.164;2022-09-09T07:56:05;18.70;1.00
752;DHT22;360;48.764;9.164;2022-09-09T07:58:32;18.50;1.00
752;DHT22;360;48.764;9.164;2022-09-09T08:00:59;18.60;1.00
752;DHT22;360;48.764;9.164;2022-09-09T08:03:25;18.70;1.00
752;DHT22;360;48.764;9.164;2022-09-09T08:05:52;18.90;1.00
752;DHT22;360;48.764;9.164;2022-09-09T08:08:20;19.00;1.00
752;DHT22;360;48.764;9.164;2022-09-09T08:10:47;19.10;1.00
752;DHT22;360;48.764;9.164;2022-09-09T08:13:14;19.10;1.00
752;DHT22;360;48.764;9.164;2022-09-09T08:15:42;19.20;1.00
752;DHT22;360;48.764;9.164;2022-09-09T08:18:09;19.30;1.00
752;DHT22;360;48.764;9.164;2022-09-09T08:20:36;19.30;1.00
752;DHT22;360;48.764;9.164;2022-09-09T08:23:04;19.30;1.00
752;DHT22;360;48.764;9.164;2022-09-09T08:25:32;19.40;1.00
752;DHT22;360;48.764;9.164;2022-09-09T08:27:59;19.40;1.00
752;DHT22;360;48.764;9.164;2022-09-09T08:30:26;19.50;1.00
752;DHT22;360;48.764;9.164;2022-09-09T08:32:53;19.60;1.00
752;DHT22;360;48.764;9.164;2022-09-09T08:35:20;19.60;1.00
752;DHT22;360;48.764;9.164;2022-09-09T08:37:47;19.70;1.00
752;DHT22;360;48.764;9.164;2022-09-09T08:40:20;19.80;1.00
752;DHT22;360;48.764;9.164;2022-09-09T08:42:51;19.80;1.00
752;DHT22;360;48.764;9.164;2022-09-09T08:45:25;19.70;1.00
752;DHT22;360;48.764;9.164;2022-09-09T08:48:22;19.80;1.00
752;DHT22;360;48.764;9.164;2022-09-09T08:50:55;19.90;1.00
752;DHT22;360;48.764;9.164;2022-09-09T08:53:28;19.90;99.90
752;DHT22;360;48.764;9.164;2022-09-09T08:55:58;20.10;99.90
752;DHT22;360;48.764;9.164;2022-09-09T08:58:28;20.10;99.90
752;DHT22;360;48.764;9.164;2022-09-09T09:01:15;20.00;99.90
752;DHT22;360;48.764;9.164;2022-09-09T09:03:50;20.10;99.90
752;DHT22;360;48.764;9.164;2022-09-09T09:06:30;20.30;99.90
752;DHT22;360;48.764;9.164;2022-09-09T09:09:05;20.50;99.90
752;DHT22;360;48.764;9.164;2022-09-09T09:11:36;20.60;99.90
752;DHT22;360;48.764;9.164;2022-09-09T09:14:10;20.60;99.90
752;DHT22;360;48.764;9.164;2022-09-09T09:16:47;20.50;99.90
752;DHT22;360;48.764;9.164;2022-09-09T09:19:16;20.50;99.90
752;DHT22;360;48.764;9.164;2022-09-09T09:21:44;20.30;99.90
752;DHT22;360;48.764;9.164;2022-09-09T09:24:18;20.10;99.90
752;DHT22;360;48.764;9.164;2022-09-09T09:26:46;19.70;99.90
752;DHT22;360;48.764;9.164;2022-09-09T09:29:16;19.10;1.00
752;DHT22;360;48.764;9.164;2022-09-09T09:31:45;18.60;1.00
752;DHT22;360;48.764;9.164;2022-09-09T09:34:14;18.20;1.00
752;DHT22;360;48.764;9.164;2022-09-09T09:36:45;17.80;1.00
752;DHT22;360;48.764;9.164;2022-09-09T09:39:23;17.60;1.00
752;DHT22;360;48.764;9.164;2022-09-09T09:41:51;17.50;99.90
752;DHT22;360;48.764;9.164;2022-09-09T09:44:27;17.50;1.00
752;DHT22;360;48.764;9.164;2022-09-09T09:47:06;17.60;1.00
752;DHT22;360;48.764;9.164;2022-09-09T09:49:33;17.90;1.00
752;DHT22;360;48.764;9.164;2022-09-09T09:52:01;18.00;99.90
752;DHT22;360;48.764;9.164;2022-09-09T09:54:29;18.40;1.00
752;DHT22;360;48.764;9.164;2022-09-09T09:57:08;18.70;1.00
752;DHT22;360;48.764;9.164;2022-09-09T09:59:37;18.90;1.00
752;DHT22;360;48.764;9.164;2022-09-09T10:02:16;19.20;1.00
752;DHT22;360;48.764;9.164;2022-09-09T10:04:44;19.40;1.00
752;DHT22;360;48.764;9.164;2022-09-09T10:07:12;19.60;99.90
752;DHT22;360;48.764;9.164;2022-09-09T10:09:39;19.80;99.90
752;DHT22;360;48.764;9.164;2022-09-09T10:12:18;20.00;99.90
752;DHT22;360;48.764;9.164;2022-09-09T10:14:55;20.20;99.90
752;DHT22;360;48.764;9.164;2022-09-09T10:17:29;20.50;99.90
752;DHT22;360;48.764;9.164;2022-09-09T10:25:36;20.40;99.90
752;DHT22;360;48.764;9.164;2022-09-09T10:28:25;20.70;99.90
752;DHT22;360;48.764;9.164;2022-09-09T10:31:07;21.00;99.90
752;DHT22;360;48.764;9.164;2022-09-09T10:33:44;21.30;99.90
752;DHT22;360;48.764;9.164;2022-09-09T10:36:19;21.50;99.90
752;DHT22;360;48.764;9.164;2022-09-09T10:38:48;21.80;99.90
752;DHT22;360;48.764;9.164;2022-09-09T10:41:21;21.70;99.90
752;DHT22;360;48.764;9.164;2022-09-09T10:44:12;21.60;99.90
752;DHT22;360;48.764;9.164;2022-09-09T10:46:52;22.00;99.90
752;DHT22;360;48.764;9.164;2022-09-09T10:49:32;21.90;99.90
752;DHT22;360;48.764;9.164;2022-09-09T10:52:08;21.80;99.90
752;DHT22;360;48.764;9.164;2022-09-09T10:54:49;21.60;99.90
752;DHT22;360;48.764;9.164;2022-09-09T10:57:26;21.50;99.90
752;DHT22;360;48.764;9.164;2022-09-09T10:59:57;22.10;99.90
752;DHT22;360;48.764;9.164;2022-09-09T11:02:27;22.40;99.90
752;DHT22;360;48.764;9.164;2022-09-09T11:04:58;22.00;99.90
752;DHT22;360;48.764;9.164;2022-09-09T11:07:34;22.10;99.90
752;DHT22;360;48.764;9.164;2022-09-09T11:10:07;22.60;99.90
752;DHT22;360;48.764;9.164;2022-09-09T11:12:39;22.60;99.90
752;DHT22;360;48.764;9.164;2022-09-09T11:15:16;22.30;99.90
752;DHT22;360;48.764;9.164;2022-09-09T11:17:46;22.40;99.90
752;DHT22;360;48.764;9.164;2022-09-09T11:20:16;22.20;99.90
752;DHT22;360;48.764;9.164;2022-09-09T11:22:47;22.10;99.90
752;DHT22;360;48.764;9.164;2022-09-09T11:25:16;21.60;99.90
752;DHT22;360;48.764;9.164;2022-09-09T11:28:05;21.10;99.90
752;DHT22;360;48.764;9.164;2022-09-09T11:30:42;21.00;99.90
752;DHT22;360;48.764;9.164;2022-09-09T11:33:46;20.90;99.90
752;DHT22;360;48.764;9.164;2022-09-09T11:36:36;20.50;99.90
752;DHT22;360;48.764;9.164;2022-09-09T11:39:19;20.70;99.90
752;DHT22;360;48.764;9.164;2022-09-09T11:41:51;20.60;99.90
752;DHT22;360;48.764;9.164;2022-09-09T11:44:21;20.20;99.90
752;DHT22;360;48.764;9.164;2022-09-09T11:46:53;20.00;99.90
752;DHT22;360;48.764;9.164;2022-09-09T11:49:28;19.80;99.90
752;DHT22;360;48.764;9.164;2022-09-09T11:51:56;19.80;99.90
752;DHT22;360;48.764;9.164;2022-09-09T11:54:31;19.80;99.90
752;DHT22;360;48.764;9.164;2022-09-09T11:56:58;19.70;99.90
752;DHT22;360;48.764;9.164;2022-09-09T11:59:28;19.80;99.90
752;DHT22;360;48.764;9.164;2022-09-09T12:01:57;19.90;99.90
752;DHT22;360;48.764;9.164;2022-09-09T12:04:36;20.20;99.90
752;DHT22;360;48.764;9.164;2022-09-09T12:07:19;20.90;99.90
752;DHT22;360;48.764;9.164;2022-09-09T12:09:51;20.80;99.90
752;DHT22;360;48.764;9.164;2022-09-09T12:12:32;20.50;99.90
752;DHT22;360;48.764;9.164;2022-09-09T12:15:20;20.50;99.90
752;DHT22;360;48.764;9.164;2022-09-09T12:17:49;20.70;99.90
752;DHT22;360;48.764;9.164;2022-09-09T12:20:20;20.80;99.90
752;DHT22;360;48.764;9.164;2022-09-09T12:22:57;21.20;99.90
752;DHT22;360;48.764;9.164;2022-09-09T12:25:33;21.30;99.90
752;DHT22;360;48.764;9.164;2022-09-09T12:28:05;21.50;99.90
752;DHT22;360;48.764;9.164;2022-09-09T12:30:43;21.40;99.90
752;DHT22;360;48.764;9.164;2022-09-09T12:33:17;21.70;99.90
752;DHT22;360;48.764;9.164;2022-09-09T12:35:49;21.90;99.90
752;DHT22;360;48.764;9.164;2022-09-09T12:38:21;21.90;99.90
752;DHT22;360;48.764;9.164;2022-09-09T12:40:54;21.90;91.60
752;DHT22;360;48.764;9.164;2022-09-09T12:43:23;22.00;84.00
752;DHT22;360;48.764;9.164;2022-09-09T12:45:52;22.10;77.20
752;DHT22;360;48.764;9.164;2022-09-09T12:48:27;21.90;80.00
752;DHT22;360;48.764;9.164;2022-09-09T12:50:58;21.40;84.50
752;DHT22;360;48.764;9.164;2022-09-09T12:53:28;21.40;89.80
752;DHT22;360;48.764;9.164;2022-09-09T12:55:57;21.40;91.40
752;DHT22;360;48.764;9.164;2022-09-09T12:58:25;21.30;93.90
752;DHT22;360;48.764;9.164;2022-09-09T13:00:55;21.70;94.80
752;DHT22;360;48.764;9.164;2022-09-09T13:03:23;22.00;91.40
752;DHT22;360;48.764;9.164;2022-09-09T13:05:51;21.90;91.90
752;DHT22;360;48.764;9.164;2022-09-09T13:08:20;21.70;90.40
752;DHT22;360;48.764;9.164;2022-09-09T13:10:49;21.40;93.10
752;DHT22;360;48.764;9.164;2022-09-09T13:13:21;21.50;93.60
752;DHT22;360;48.764;9.164;2022-09-09T13:15:51;21.50;90.20
752;DHT22;360;48.764;9.164;2022-09-09T13:18:22;21.40;89.30
752;DHT22;360;48.764;9.164;2022-09-09T13:20:50;21.90;84.70
752;DHT22;360;48.764;9.164;2022-09-09T13:23:20;22.30;84.80
752;DHT22;360;48.764;9.164;2022-09-09T13:25:55;22.30;80.00
752;DHT22;360;48.764;9.164;2022-09-09T13:28:24;22.40;73.30
752;DHT22;360;48.764;9.164;2022-09-09T13:30:58;22.20;70.20
752;DHT22;360;48.764;9.164;2022-09-09T13:33:32;22.10;75.50
752;DHT22;360;48.764;9.164;2022-09-09T13:36:02;22.30;69.70
752;DHT22;360;48.764;9.164;2022-09-09T13:38:32;22.60;60.50
752;DHT22;360;48.764;9.164;2022-09-09T13:41:01;22.90;52.40
752;DHT22;360;48.764;9.164;2022-09-09T13:43:31;22.60;46.60
752;DHT22;360;48.764;9.164;2022-09-09T13:46:00;22.50;45.00
752;DHT22;360;48.764;9.164;2022-09-09T13:48:27;22.50;42.70
752;DHT22;360;48.764;9.164;2022-09-09T13:51:04;22.80;41.80
752;DHT22;360;48.764;9.164;2022-09-09T13:53:33;23.20;39.60
752;DHT22;360;48.764;9.164;2022-09-09T13:56:00;22.80;39.60
752;DHT22;360;48.764;9.164;2022-09-09T13:58:27;23.10;38.70
752;DHT22;360;48.764;9.164;2022-09-09T14:00:54;23.20;37.20
752;DHT22;360;48.764;9.164;2022-09-09T14:03:21;23.10;35.60
752;DHT22;360;48.764;9.164;2022-09-09T14:05:48;23.30;34.30
752;DHT22;360;48.764;9.164;2022-09-09T14:08:23;23.40;28.60
752;DHT22;360;48.764;9.164;2022-09-09T14:10:52;23.20;27.00
752;DHT22;360;48.764;9.164;2022-09-09T14:13:25;23.30;24.80
752;DHT22;360;48.764;9.164;2022-09-09T14:15:51;23.50;23.80
752;DHT22;360;48.764;9.164;2022-09-09T14:18:19;23.60;21.10
752;DHT22;360;48.764;9.164;2022-09-09T14:20:47;23.60;19.40
752;DHT22;360;48.764;9.164;2022-09-09T14:23:16;23.90;18.40
752;DHT22;360;48.764;9.164;2022-09-09T14:25:43;23.70;26.50
752;DHT22;360;48.764;9.164;2022-09-09T14:28:13;23.20;14.90
752;DHT22;360;48.764;9.164;2022-09-09T14:30:41;22.60;14.50
752;DHT22;360;48.764;9.164;2022-09-09T14:33:10;22.70;16.30
752;DHT22;360;48.764;9.164;2022-09-09T14:35:37;23.10;13.70
752;DHT22;360;48.764;9.164;2022-09-09T14:38:05;23.20;11.20
752;DHT22;360;48.764;9.164;2022-09-09T14:40:34;22.90;9.90
752;DHT22;360;48.764;9.164;2022-09-09T14:43:01;22.90;10.70
752;DHT22;360;48.764;9.164;2022-09-09T14:50:24;23.70;11.40
752;DHT22;360;48.764;9.164;2022-09-09T14:52:51;26.50;1.00
752;DHT22;360;48.764;9.164;2022-09-09T14:55:18;26.90;1.00
752;DHT22;360;48.764;9.164;2022-09-09T14:57:45;26.20;1.00
752;DHT22;360;48.764;9.164;2022-09-09T15:00:12;26.60;1.00
752;DHT22;360;48.764;9.164;2022-09-09T15:02:40;27.30;1.00
752;DHT22;360;48.764;9.164;2022-09-09T15:05:08;27.10;1.00
752;DHT22;360;48.764;9.164;2022-09-09T15:07:35;27.20;1.00
752;DHT22;360;48.764;9.164;2022-09-09T15:10:04;25.90;1.00
752;DHT22;360;48.764;9.164;2022-09-09T15:12:32;25.10;1.00
752;DHT22;360;48.764;9.164;2022-09-09T15:15:01;24.60;1.00
752;DHT22;360;48.764;9.164;2022-09-09T15:17:27;24.10;1.00
752;DHT22;360;48.764;9.164;2022-09-09T15:19:56;23.90;1.00
752;DHT22;360;48.764;9.164;2022-09-09T15:22:23;23.40;1.00
752;DHT22;360;48.764;9.164;2022-09-09T15:24:50;23.30;1.00
752;DHT22;360;48.764;9.164;2022-09-09T15:27:17;23.00;1.00
752;DHT22;360;48.764;9.164;2022-09-09T15:29:44;23.30;1.00
752;DHT22;360;48.764;9.164;2022-09-09T15:32:12;23.40;1.00
752;DHT22;360;48.764;9.164;2022-09-09T15:34:39;23.20;1.00
752;DHT22;360;48.764;9.164;2022-09-09T15:37:09;23.00;1.00
752;DHT22;360;48.764;9.164;2022-09-09T15:39:38;23.10;1.00
752;DHT22;360;48.764;9.164;2022-09-09T15:42:05;22.80;1.00
752;DHT22;360;48.764;9.164;2022-09-09T15:44:38;22.70;1.00
752;DHT22;360;48.764;9.164;2022-09-09T15:47:05;22.40;1.00
752;DHT22;360;48.764;9.164;2022-09-09T15:49:32;22.20;1.00
752;DHT22;360;48.764;9.164;2022-09-09T15:51:59;21.90;1.00
752;DHT22;360;48.764;9.164;2022-09-09T15:54:31;21.90;1.00
752;DHT22;360;48.764;9.164;2022-09-09T15:57:01;21.90;1.00
752;DHT22;360;48.764;9.164;2022-09-09T15:59:30;21.70;1.00
752;DHT22;360;48.764;9.164;2022-09-09T16:01:57;21.70;1.00
752;DHT22;360;48.764;9.164;2022-09-09T16:04:26;21.70;1.00
752;DHT22;360;48.764;9.164;2022-09-09T16:06:55;21.80;1.00
752;DHT22;360;48.764;9.164;2022-09-09T16:09:24;21.70;1.00
752;DHT22;360;48.764;9.164;2022-09-09T16:11:52;21.60;1.00
752;DHT22;360;48.764;9.164;2022-09-09T16:14:19;21.40;1.00
752;DHT22;360;48.764;9.164;2022-09-09T16:16:47;21.40;1.00
752;DHT22;360;48.764;9.164;2022-09-09T16:19:14;21.40;1.00
752;DHT22;360;48.764;9.164;2022-09-09T16:21:42;21.40;1.00
752;DHT22;360;48.764;9.164;2022-09-09T16:24:11;21.30;1.00
752;DHT22;360;48.764;9.164;2022-09-09T16:26:40;21.30;1.00
752;DHT22;360;48.764;9.164;2022-09-09T16:29:09;21.20;1.00
752;DHT22;360;48.764;9.164;2022-09-09T16:31:37;21.30;1.00
752;DHT22;360;48.764;9.164;2022-09-09T16:34:05;21.20;1.00
752;DHT22;360;48.764;9.164;2022-09-09T16:36:34;21.10;1.00
752;DHT22;360;48.764;9.164;2022-09-09T16:39:03;21.10;1.00
752;DHT22;360;48.764;9.164;2022-09-09T16:41:30;21.10;1.00
752;DHT22;360;48.764;9.164;2022-09-09T16:43:58;21.00;1.00
752;DHT22;360;48.764;9.164;2022-09-09T16:46:28;20.70;1.00
752;DHT22;360;48.764;9.164;2022-09-09T16:48:56;20.70;1.00
752;DHT22;360;48.764;9.164;2022-09-09T16:51:26;20.30;1.00
752;DHT22;360;48.764;9.164;2022-09-09T16:53:54;20.20;1.00
752;DHT22;360;48.764;9.164;2022-09-09T16:56:22;20.10;1.00
752;DHT22;360;48.764;9.164;2022-09-09T17:33:25;20.00;1.00
752;DHT22;360;48.764;9.164;2022-09-09T17:35:54;18.60;65.10
752;DHT22;360;48.764;9.164;2022-09-09T17:38:22;18.50;73.40
752;DHT22;360;48.764;9.164;2022-09-09T17:40:49;18.50;81.70
752;DHT22;360;48.764;9.164;2022-09-09T17:43:16;18.50;90.90
752;DHT22;360;48.764;9.164;2022-09-09T17:45:43;18.40;96.30
752;DHT22;360;48.764;9.164;2022-09-09T17:48:11;18.40;99.90
752;DHT22;360;48.764;9.164;2022-09-09T17:50:38;18.40;99.90
752;DHT22;360;48.764;9.164;2022-09-09T17:53:05;18.30;99.90